createdAt,value
2018-04-10T00:00:38.896Z,22.93
2018-04-10T00:03:06.492Z,22.73
2018-04-10T00:05:34.263Z,23.20
2018-04-10T00:08:02.648Z,23.17
2018-04-10T00:10:31.025Z,22.37
2018-04-10T00:12:59.502Z,23.17
2018-04-10T00:15:28.029Z,22.40
2018-04-10T00:17:55.673Z,22.77
2018-04-10T00:20:23.339Z,22.80
2018-04-10T00:22:50.956Z,23.17
2018-04-10T00:25:18.570Z,21.83
2018-04-10T00:27:46.319Z,23.20
2018-04-10T00:30:13.927Z,22.87
2018-04-10T00:32:41.536Z,21.27
2018-04-10T00:35:09.967Z,23.17
2018-04-10T00:37:37.575Z,20.57
2018-04-10T00:40:05.250Z,20.93
2018-04-10T00:42:32.846Z,22.47
2018-04-10T00:45:00.450Z,22.20
2018-04-10T00:47:28.063Z,21.17
2018-04-10T00:49:55.706Z,20.10
2018-04-10T00:52:23.311Z,21.00
2018-04-10T00:54:50.910Z,22.43
2018-04-10T00:57:18.575Z,23.10
2018-04-10T00:59:46.919Z,22.10
2018-04-10T01:02:14.552Z,24.43
2018-04-10T01:04:42.148Z,23.23
2018-04-10T01:07:09.784Z,21.90
2018-04-10T01:09:37.399Z,20.67
2018-04-10T01:12:05.832Z,21.23
2018-04-10T01:14:33.875Z,22.27
2018-04-10T01:17:01.448Z,23.10
2018-04-10T01:19:29.078Z,22.17
2018-04-10T01:21:57.419Z,21.90
2018-04-10T01:24:25.067Z,21.57
2018-04-10T01:26:52.642Z,22.50
2018-04-10T01:29:20.342Z,20.37
2018-04-10T01:31:48.673Z,20.27
2018-04-10T01:34:16.309Z,19.80
2018-04-10T01:36:43.902Z,22.20
2018-04-10T01:39:11.479Z,19.37
2018-04-10T01:41:39.058Z,22.90
2018-04-10T01:44:06.642Z,21.73
2018-04-10T01:46:34.276Z,22.13
2018-04-10T01:49:01.854Z,21.30
2018-04-10T01:51:29.516Z,22.07
2018-04-10T01:53:57.100Z,20.97
2018-04-10T01:56:24.940Z,20.17
2018-04-10T01:58:53.307Z,20.57
2018-04-10T02:01:20.903Z,20.03
2018-04-10T02:03:48.492Z,20.20
2018-04-10T02:06:16.076Z,20.70
2018-04-10T02:08:43.674Z,21.93
2018-04-10T02:11:11.298Z,19.97
2018-04-10T02:13:38.990Z,19.63
2018-04-10T02:16:07.357Z,21.93
2018-04-10T02:18:34.950Z,20.63
2018-04-10T02:21:02.545Z,22.20
2018-04-10T02:23:30.210Z,22.03
2018-04-10T02:25:57.814Z,20.60
2018-04-10T02:28:26.169Z,21.17
2018-04-10T02:30:53.771Z,19.83
2018-04-10T02:33:21.379Z,21.30
2018-04-10T02:35:48.964Z,21.23
2018-04-10T02:38:16.600Z,19.17
2018-04-10T02:40:44.185Z,19.97
2018-04-10T02:43:11.800Z,19.63
2018-04-10T02:45:39.403Z,21.83
2018-04-10T02:48:06.976Z,21.60
2018-04-10T02:50:34.662Z,20.90
2018-04-10T02:53:02.252Z,20.93
2018-04-10T02:55:30.635Z,21.53
2018-04-10T02:57:58.203Z,21.27
2018-04-10T03:00:25.778Z,21.33
2018-04-10T03:02:53.384Z,24.20
2018-04-10T03:05:21.766Z,20.57
2018-04-10T03:07:50.147Z,19.90
2018-04-10T03:10:18.515Z,23.73
2018-04-10T03:12:46.093Z,20.37
2018-04-10T03:15:14.502Z,22.17
2018-04-10T03:17:42.124Z,21.80
2018-04-10T03:20:10.500Z,21.60
2018-04-10T03:22:38.877Z,22.40
2018-04-10T03:25:06.487Z,21.87
2018-04-10T03:27:34.139Z,23.97
2018-04-10T03:30:01.719Z,22.80
2018-04-10T03:32:29.320Z,22.63
2018-04-10T03:34:56.930Z,22.70
2018-04-10T03:37:24.522Z,22.03
2018-04-10T03:39:52.163Z,21.30
2018-04-10T03:42:19.757Z,22.57
2018-04-10T03:44:47.351Z,24.73
2018-04-10T03:47:15.021Z,24.70
2018-04-10T03:49:42.661Z,25.23
2018-04-10T03:52:10.248Z,24.47
2018-04-10T03:54:37.892Z,25.33
2018-04-10T03:57:05.508Z,23.53
2018-04-10T03:59:33.152Z,21.40
2018-04-10T04:02:00.758Z,23.83
2018-04-10T04:04:28.405Z,24.70
2018-04-10T04:06:55.998Z,24.13
2018-04-10T04:09:23.581Z,24.83
2018-04-10T04:11:51.151Z,23.63
2018-04-10T04:14:18.722Z,23.70
2018-04-10T04:16:58.042Z,22.10
2018-04-10T04:19:37.387Z,24.73
2018-04-10T04:22:16.838Z,23.23
2018-04-10T04:24:44.435Z,24.43
2018-04-10T04:27:12.010Z,23.40
2018-04-10T04:29:39.636Z,23.17
2018-04-10T04:32:07.327Z,23.97
2018-04-10T04:34:34.905Z,24.53
2018-04-10T04:37:03.332Z,23.47
2018-04-10T04:39:30.922Z,26.30
2018-04-10T04:41:58.564Z,23.17
2018-04-10T04:44:26.203Z,23.37
2018-04-10T04:46:53.818Z,22.63
2018-04-10T04:49:21.400Z,22.63
2018-04-10T04:51:49.760Z,24.87
2018-04-10T04:54:17.343Z,24.77
2018-04-10T04:56:45.021Z,24.17
2018-04-10T04:59:12.626Z,23.67
2018-04-10T05:01:40.203Z,23.40
2018-04-10T05:04:07.817Z,21.50
2018-04-10T05:06:35.973Z,24.77
2018-04-10T05:09:03.651Z,23.00
2018-04-10T05:11:31.243Z,24.10
2018-04-10T05:13:58.918Z,24.43
2018-04-10T05:16:26.531Z,22.23
2018-04-10T05:18:54.159Z,23.43
2018-04-10T05:21:21.812Z,23.00
2018-04-10T05:23:49.441Z,22.43
2018-04-10T05:26:17.233Z,23.60
2018-04-10T05:28:44.836Z,26.10
2018-04-10T05:31:12.450Z,23.73
2018-04-10T05:33:40.040Z,24.80
2018-04-10T05:36:08.446Z,21.87
2018-04-10T05:38:36.065Z,29.83
2018-04-10T05:41:03.699Z,26.73
2018-04-10T05:43:31.302Z,24.50
2018-04-10T05:45:59.010Z,25.27
2018-04-10T05:48:26.619Z,23.13
2018-04-10T05:50:54.198Z,22.70
2018-04-10T05:53:21.813Z,20.60
2018-04-10T05:55:49.542Z,23.20
2018-04-10T05:58:17.195Z,22.53
2018-04-10T06:00:44.772Z,22.47
2018-04-10T06:03:12.361Z,21.43
2018-04-10T06:05:40.003Z,25.47
2018-04-10T06:08:07.643Z,22.70
2018-04-10T06:10:35.232Z,22.60
2018-04-10T06:13:02.872Z,22.23
2018-04-10T06:15:30.529Z,23.80
2018-04-10T06:17:58.164Z,22.90
2018-04-10T06:20:25.787Z,21.17
2018-04-10T06:22:53.412Z,23.10
2018-04-10T06:25:21.769Z,20.73
2018-04-10T06:27:49.350Z,19.67
2018-04-10T06:30:16.935Z,20.87
2018-04-10T06:32:44.519Z,24.97
2018-04-10T06:35:12.164Z,21.80
2018-04-10T06:37:39.736Z,23.07
2018-04-10T06:40:07.348Z,21.93
2018-04-10T06:42:34.924Z,20.27
2018-04-10T06:45:03.303Z,24.50
2018-04-10T06:47:32.878Z,25.70
2018-04-10T06:50:00.477Z,25.83
2018-04-10T06:52:28.088Z,25.30
2018-04-10T06:54:55.695Z,25.93
2018-04-10T06:57:23.308Z,29.47
2018-04-10T06:59:50.919Z,26.57
2018-04-10T07:02:18.494Z,24.60
2018-04-10T07:07:28.898Z,23.53
2018-04-10T07:09:56.584Z,24.10
2018-04-10T07:12:24.219Z,23.83
2018-04-10T07:14:51.871Z,26.40
2018-04-10T07:17:19.476Z,27.77
2018-04-10T07:19:47.119Z,26.80
2018-04-10T07:22:14.703Z,24.40
2018-04-10T07:24:42.311Z,26.00
2018-04-10T07:27:09.901Z,26.30
2018-04-10T07:29:37.520Z,23.83
2018-04-10T07:32:05.906Z,24.93
2018-04-10T07:34:34.335Z,21.93
2018-04-10T07:37:01.997Z,22.80
2018-04-10T07:39:29.620Z,23.93
2018-04-10T07:41:57.196Z,24.80
2018-04-10T07:44:24.804Z,23.53
2018-04-10T07:46:52.584Z,24.90
2018-04-10T07:49:20.167Z,26.37
2018-04-10T07:51:47.744Z,25.23
2018-04-10T07:54:15.337Z,24.87
2018-04-10T07:56:42.951Z,25.07
2018-04-10T07:59:10.596Z,26.10
2018-04-10T08:01:38.209Z,25.97
2018-04-10T08:04:05.867Z,26.13
2018-04-10T08:06:33.671Z,28.07
2018-04-10T08:09:01.286Z,28.30
2018-04-10T08:11:28.936Z,28.23
2018-04-10T08:13:56.572Z,27.57
2018-04-10T08:16:24.203Z,28.67
2018-04-10T08:18:51.838Z,27.83
2018-04-10T08:21:20.184Z,29.30
2018-04-10T08:23:47.775Z,28.37
2018-04-10T08:26:15.361Z,30.90
2018-04-10T08:28:42.966Z,28.90
2018-04-10T08:31:11.961Z,29.90
2018-04-10T08:33:40.311Z,31.13
2018-04-10T08:36:08.115Z,30.77
2018-04-10T08:38:36.454Z,30.77
2018-04-10T08:41:04.027Z,30.67
2018-04-10T08:43:31.751Z,30.57
2018-04-10T08:45:59.420Z,30.13
2018-04-10T08:48:27.014Z,30.87
2018-04-10T08:50:54.655Z,29.50
2018-04-10T08:53:22.268Z,27.13
2018-04-10T08:55:54.328Z,29.03
2018-04-10T08:58:27.324Z,27.37
2018-04-10T09:01:00.843Z,29.77
2018-04-10T09:03:28.832Z,32.07
2018-04-10T09:05:56.437Z,31.57
2018-04-10T09:08:24.051Z,32.93
2018-04-10T09:10:51.707Z,33.27
2018-04-10T09:13:19.310Z,34.80
2018-04-10T09:15:47.083Z,33.30
2018-04-10T09:18:14.665Z,34.23
2018-04-10T09:20:42.281Z,33.73
2018-04-10T09:23:09.930Z,34.50
2018-04-10T09:25:37.544Z,33.67
2018-04-10T09:28:05.921Z,35.47
2018-04-10T09:30:34.385Z,34.87
2018-04-10T09:33:01.979Z,36.13
2018-04-10T09:35:29.635Z,32.63
2018-04-10T09:37:57.215Z,35.50
2018-04-10T09:40:24.799Z,34.20
2018-04-10T09:42:52.384Z,35.30
2018-04-10T09:45:20.048Z,35.97
2018-04-10T09:47:47.695Z,36.13
2018-04-10T09:50:15.284Z,36.47
2018-04-10T09:52:42.928Z,34.67
2018-04-10T09:55:10.503Z,34.33
2018-04-10T09:57:38.154Z,32.63
2018-04-10T10:00:05.844Z,34.37
2018-04-10T10:05:15.362Z,51.20
2018-04-10T10:07:43.871Z,32.87
2018-04-10T10:10:11.483Z,35.50
2018-04-10T10:12:39.100Z,33.63
2018-04-10T10:15:06.686Z,34.30
2018-04-10T10:17:35.109Z,31.30
2018-04-10T10:20:02.678Z,36.10
2018-04-10T10:22:30.295Z,32.37
2018-04-10T10:24:58.659Z,51.60
2018-04-10T10:27:27.058Z,41.60
2018-04-10T10:29:55.507Z,54.40
2018-04-10T10:32:23.156Z,42.57
2018-04-10T10:34:50.772Z,31.27
2018-04-10T10:37:18.392Z,29.77
2018-04-10T10:39:46.032Z,33.10
2018-04-10T10:42:13.663Z,32.33
2018-04-10T10:44:41.230Z,30.87
2018-04-10T10:47:08.880Z,31.57
2018-04-10T10:49:36.507Z,31.07
2018-04-10T10:52:04.131Z,29.17
2018-04-10T10:54:31.708Z,30.70
2018-04-10T10:56:59.300Z,28.73
2018-04-10T10:59:26.915Z,30.20
2018-04-10T11:01:54.500Z,28.63
2018-04-10T11:04:22.166Z,27.57
2018-04-10T11:06:49.747Z,28.00
2018-04-10T11:09:17.347Z,28.33
2018-04-10T11:11:44.950Z,30.47
2018-04-10T11:14:12.563Z,29.87
2018-04-10T11:16:40.167Z,28.80
2018-04-10T11:19:07.763Z,28.23
2018-04-10T11:21:35.395Z,26.80
2018-04-10T11:24:03.037Z,27.57
2018-04-10T11:26:31.049Z,26.30
2018-04-10T11:28:58.626Z,28.70
2018-04-10T11:31:26.240Z,28.63
2018-04-10T11:33:53.861Z,27.27
2018-04-10T11:36:21.527Z,29.00
2018-04-10T11:38:49.146Z,26.00
2018-04-10T11:41:16.737Z,27.80
2018-04-10T11:43:44.343Z,25.83
2018-04-10T11:46:12.004Z,26.57
2018-04-10T11:48:39.640Z,27.87
2018-04-10T11:51:07.272Z,29.33
2018-04-10T11:53:34.943Z,26.43
2018-04-10T11:56:02.601Z,29.73
2018-04-10T11:58:30.939Z,30.40
2018-04-10T12:00:58.552Z,29.50
2018-04-10T12:03:26.160Z,29.20
2018-04-10T12:05:53.753Z,25.57
2018-04-10T12:08:21.379Z,26.90
2018-04-10T12:10:48.958Z,29.30
2018-04-10T12:13:16.539Z,29.95
2018-04-10T12:15:44.167Z,26.67
2018-04-10T12:18:11.752Z,28.98
2018-04-10T12:20:39.388Z,28.70
2018-04-10T12:23:06.991Z,28.08
2018-04-10T12:25:34.580Z,29.02
2018-04-10T12:28:02.193Z,28.65
2018-04-10T12:30:29.804Z,29.02
2018-04-10T12:32:57.433Z,28.77
2018-04-10T12:35:25.028Z,29.70
2018-04-10T12:37:52.645Z,25.92
2018-04-10T12:40:20.278Z,29.17
2018-04-10T12:42:47.928Z,26.35
2018-04-10T12:45:15.537Z,24.92
2018-04-10T12:47:43.230Z,29.52
2018-04-10T12:50:11.597Z,29.90
2018-04-10T12:52:40.020Z,30.45
2018-04-10T12:55:07.640Z,29.02
2018-04-10T12:57:36.044Z,27.83
2018-04-10T13:00:03.673Z,28.65
2018-04-10T13:02:31.282Z,28.67
2018-04-10T13:04:58.881Z,26.37
2018-04-10T13:07:26.504Z,30.88
2018-04-10T13:09:54.082Z,29.77
2018-04-10T13:12:21.651Z,30.52
2018-04-10T13:14:49.272Z,29.87
2018-04-10T13:17:16.942Z,27.45
2018-04-10T13:19:44.588Z,24.55
2018-04-10T13:22:12.708Z,27.35
2018-04-10T13:24:40.490Z,25.83
2018-04-10T13:27:08.121Z,26.05
2018-04-10T13:29:35.720Z,27.48
2018-04-10T13:32:03.304Z,27.62
2018-04-10T13:34:31.716Z,22.37
2018-04-10T13:36:59.360Z,24.27
2018-04-10T13:39:27.001Z,25.12
2018-04-10T13:41:56.037Z,27.08
2018-04-10T13:44:23.715Z,28.17
2018-04-10T13:46:51.358Z,28.12
2018-04-10T13:49:18.975Z,23.80
2018-04-10T13:51:47.106Z,24.15
2018-04-10T13:54:15.398Z,22.48
2018-04-10T13:56:43.806Z,22.20
2018-04-10T13:59:11.964Z,17.75
2018-04-10T14:01:40.806Z,19.25
2018-04-10T14:04:08.897Z,20.15
2018-04-10T14:06:36.829Z,18.55
2018-04-10T14:09:04.913Z,19.73
2018-04-10T14:11:32.593Z,21.48
2018-04-10T14:14:00.305Z,19.87
2018-04-10T14:16:27.933Z,21.08
2018-04-10T14:18:55.513Z,17.17
2018-04-10T14:21:23.090Z,21.87
2018-04-10T14:23:50.712Z,21.42
2018-04-10T14:26:18.340Z,20.77
2018-04-10T14:28:45.945Z,21.10
2018-04-10T14:31:13.616Z,23.12
2018-04-10T14:33:41.276Z,23.48
2018-04-10T14:36:08.929Z,24.37
2018-04-10T14:38:36.562Z,23.00
2018-04-10T14:41:04.160Z,19.25
2018-04-10T14:43:31.765Z,18.35
2018-04-10T14:45:59.431Z,18.90
2018-04-10T14:48:27.012Z,21.23
2018-04-10T14:50:55.360Z,17.52
2018-04-10T14:53:23.007Z,17.23
2018-04-10T14:55:50.636Z,19.25
2018-04-10T14:58:18.248Z,18.52
2018-04-10T15:00:45.860Z,17.85
2018-04-10T15:03:13.498Z,17.83
2018-04-10T15:05:41.083Z,20.08
2018-04-10T15:08:08.728Z,18.17
2018-04-10T15:10:36.411Z,20.33
2018-04-10T15:13:04.005Z,21.55
2018-04-10T15:15:31.694Z,16.40
2018-04-10T15:17:59.280Z,18.15
2018-04-10T15:20:27.664Z,17.50
2018-04-10T15:22:55.326Z,20.60
2018-04-10T15:25:22.930Z,20.88
2018-04-10T15:27:51.343Z,20.15
2018-04-10T15:30:18.931Z,21.58
2018-04-10T15:32:47.279Z,22.10
2018-04-10T15:35:14.914Z,23.10
2018-04-10T15:37:42.528Z,19.67
2018-04-10T15:40:10.867Z,22.67
2018-04-10T15:42:38.479Z,22.27
2018-04-10T15:45:06.121Z,20.75
2018-04-10T15:47:33.777Z,20.45
2018-04-10T15:50:01.382Z,22.27
2018-04-10T15:52:28.959Z,23.45
2018-04-10T15:54:56.620Z,22.55
2018-04-10T15:57:24.218Z,22.52
2018-04-10T15:59:51.822Z,23.45
2018-04-10T16:02:19.450Z,22.65
2018-04-10T16:04:47.069Z,22.65
2018-04-10T16:07:15.942Z,20.88
2018-04-10T16:09:43.624Z,24.50
2018-04-10T16:12:11.721Z,23.02
2018-04-10T16:14:39.350Z,22.90
2018-04-10T16:17:06.928Z,20.33
2018-04-10T16:19:34.513Z,24.25
2018-04-10T16:22:02.094Z,23.85
2018-04-10T16:24:29.710Z,22.85
2018-04-10T16:26:57.283Z,23.70
2018-04-10T16:29:24.919Z,22.87
2018-04-10T16:31:52.560Z,22.92
2018-04-10T16:34:20.150Z,20.92
2018-04-10T16:36:47.850Z,21.55
2018-04-10T16:39:15.507Z,22.13
2018-04-10T16:41:43.082Z,22.08
2018-04-10T16:44:10.730Z,22.10
2018-04-10T16:46:38.353Z,21.25
2018-04-10T16:49:05.941Z,21.60
2018-04-10T16:51:33.574Z,19.80
2018-04-10T16:54:01.157Z,20.52
2018-04-10T16:56:28.759Z,19.95
2018-04-10T16:58:57.126Z,19.62
2018-04-10T17:01:24.779Z,20.52
2018-04-10T17:03:52.367Z,21.12
2018-04-10T17:06:20.747Z,20.42
2018-04-10T17:08:48.354Z,19.23
2018-04-10T17:11:15.956Z,19.12
2018-04-10T17:13:43.618Z,21.12
2018-04-10T17:16:11.263Z,21.52
2018-04-10T17:18:38.868Z,18.75
2018-04-10T17:21:06.464Z,23.23
2018-04-10T17:23:34.101Z,22.17
2018-04-10T17:26:01.755Z,20.97
2018-04-10T17:28:29.400Z,23.47
2018-04-10T17:30:57.009Z,21.40
2018-04-10T17:33:24.620Z,21.50
2018-04-10T17:35:52.372Z,18.87
2018-04-10T17:38:19.989Z,21.23
2018-04-10T17:40:47.604Z,19.57
2018-04-10T17:43:15.258Z,22.10
2018-04-10T17:45:42.924Z,20.70
2018-04-10T17:48:10.503Z,21.10
2018-04-10T17:50:38.165Z,22.20
2018-04-10T17:53:06.549Z,22.20
2018-04-10T17:55:34.141Z,20.97
2018-04-10T17:58:01.767Z,21.40
2018-04-10T18:00:29.381Z,22.73
2018-04-10T18:02:57.764Z,21.83
2018-04-10T18:05:25.388Z,19.30
2018-04-10T18:07:53.010Z,21.00
2018-04-10T18:10:20.594Z,20.63
2018-04-10T18:12:48.963Z,20.50
2018-04-10T18:15:16.598Z,19.20
2018-04-10T18:17:44.249Z,19.30
2018-04-10T18:20:11.883Z,20.37
2018-04-10T18:22:40.236Z,18.97
2018-04-10T18:25:07.861Z,20.50
2018-04-10T18:27:35.434Z,20.27
2018-04-10T18:30:03.065Z,20.67
2018-04-10T18:32:30.683Z,20.83
2018-04-10T18:34:58.268Z,21.30
2018-04-10T18:37:25.872Z,21.10
2018-04-10T18:39:53.467Z,20.90
2018-04-10T18:42:21.065Z,19.40
2018-04-10T18:44:48.670Z,20.47
2018-04-10T18:47:16.280Z,19.53
2018-04-10T18:49:43.939Z,21.07
2018-04-10T18:52:11.591Z,21.30
2018-04-10T18:54:39.956Z,19.57
2018-04-10T18:57:07.732Z,20.17
2018-04-10T18:59:35.368Z,21.73
2018-04-10T19:02:02.956Z,19.37
2018-04-10T19:04:31.368Z,21.50
2018-04-10T19:06:59.014Z,20.13
2018-04-10T19:09:26.608Z,19.60
2018-04-10T19:11:54.183Z,18.30
2018-04-10T19:14:21.799Z,18.77
2018-04-10T19:16:50.160Z,17.07
2018-04-10T19:19:17.821Z,17.13
2018-04-10T19:21:45.433Z,18.67
2018-04-10T19:24:13.028Z,18.13
2018-04-10T19:26:43.993Z,18.47
2018-04-10T19:29:12.409Z,17.57
2018-04-10T19:31:40.064Z,18.17
2018-04-10T19:34:07.680Z,17.97
2018-04-10T19:36:35.277Z,17.87
2018-04-10T19:39:02.952Z,17.67
2018-04-10T19:41:30.595Z,18.40
2018-04-10T19:43:59.009Z,18.17
2018-04-10T19:46:26.636Z,18.83
2018-04-10T19:48:54.237Z,18.47
2018-04-10T19:51:21.826Z,18.87
2018-04-10T19:53:49.441Z,19.87
2018-04-10T19:56:17.213Z,19.63
2018-04-10T19:58:44.793Z,19.23
2018-04-10T20:01:12.422Z,20.47
2018-04-10T20:03:40.020Z,20.27
2018-04-10T20:06:07.650Z,22.27
2018-04-10T20:08:36.096Z,19.53
2018-04-10T20:11:03.703Z,20.57
2018-04-10T20:13:31.331Z,20.03
2018-04-10T20:15:59.757Z,20.03
2018-04-10T20:18:28.041Z,21.67
2018-04-10T20:20:55.705Z,20.87
2018-04-10T20:23:23.291Z,22.00
2018-04-10T20:25:50.973Z,20.73
2018-04-10T20:28:19.330Z,20.93
2018-04-10T20:30:46.936Z,20.93
2018-04-10T20:33:14.571Z,21.13
2018-04-10T20:35:42.194Z,19.77
2018-04-10T20:38:09.790Z,21.27
2018-04-10T20:40:37.439Z,21.13
2018-04-10T20:43:05.075Z,22.63
2018-04-10T20:45:32.712Z,20.87
2018-04-10T20:48:00.370Z,21.50
2018-04-10T20:50:28.023Z,20.73
2018-04-10T20:52:56.403Z,22.47
2018-04-10T20:55:24.770Z,23.00
2018-04-10T20:57:52.408Z,22.93
2018-04-10T21:00:20.039Z,21.67
2018-04-10T21:02:47.624Z,21.70
2018-04-10T21:05:15.204Z,23.40
2018-04-10T21:07:42.814Z,22.70
2018-04-10T21:10:10.412Z,22.50
2018-04-10T21:12:38.045Z,22.17
2018-04-10T21:15:05.620Z,23.83
2018-04-10T21:17:33.482Z,23.03
2018-04-10T21:20:01.832Z,23.07
2018-04-10T21:22:30.187Z,22.30
2018-04-10T21:24:57.819Z,23.43
2018-04-10T21:27:25.396Z,22.10
2018-04-10T21:29:53.003Z,22.37
2018-04-10T21:32:20.574Z,22.40
2018-04-10T21:34:48.159Z,22.93
2018-04-10T21:37:15.763Z,22.10
2018-04-10T21:39:43.363Z,23.17
2018-04-10T21:42:11.048Z,22.97
2018-04-10T21:44:38.752Z,23.50
2018-04-10T21:47:06.599Z,23.10
2018-04-10T21:49:34.190Z,22.60
2018-04-10T21:52:01.757Z,22.83
2018-04-10T21:54:30.107Z,21.70
2018-04-10T21:56:57.706Z,22.60
2018-04-10T21:59:25.287Z,23.70
2018-04-10T22:01:52.860Z,23.57
2018-04-10T22:04:20.434Z,23.73
2018-04-10T22:06:48.054Z,23.13
2018-04-10T22:09:15.699Z,23.50
2018-04-10T22:11:43.315Z,23.57
2018-04-10T22:14:10.920Z,22.43
2018-04-10T22:16:38.615Z,23.83
2018-04-10T22:19:06.191Z,23.37
2018-04-10T22:21:33.807Z,23.13
2018-04-10T22:24:02.151Z,24.23
2018-04-10T22:26:29.731Z,24.33
2018-04-10T22:28:57.321Z,23.80
2018-04-10T22:31:24.985Z,24.10
2018-04-10T22:33:53.324Z,23.53
2018-04-10T22:36:20.914Z,22.73
2018-04-10T22:38:48.536Z,24.03
2018-04-10T22:41:16.141Z,23.30
2018-04-10T22:43:43.789Z,22.63
2018-04-10T22:46:11.831Z,23.57
2018-04-10T22:48:39.441Z,23.73
2018-04-10T22:51:07.055Z,24.23
2018-04-10T22:53:34.641Z,24.57
2018-04-10T22:56:02.264Z,24.90
2018-04-10T22:58:29.877Z,23.77
2018-04-10T23:00:58.048Z,22.93
2018-04-10T23:03:25.670Z,24.47
2018-04-10T23:05:53.260Z,24.60
2018-04-10T23:08:21.704Z,24.43
2018-04-10T23:10:49.379Z,22.80
2018-04-10T23:13:16.963Z,24.13
2018-04-10T23:15:44.602Z,24.60
2018-04-10T23:18:12.225Z,23.63
2018-04-10T23:20:39.864Z,24.73
2018-04-10T23:23:07.454Z,22.83
2018-04-10T23:25:35.043Z,23.53
2018-04-10T23:28:02.644Z,23.10
2018-04-10T23:30:30.291Z,23.63
2018-04-10T23:32:57.927Z,22.17
2018-04-10T23:35:25.512Z,22.73
2018-04-10T23:37:53.335Z,22.87
2018-04-10T23:40:20.967Z,22.60
2018-04-10T23:42:48.600Z,20.63
2018-04-10T23:45:16.249Z,23.13
2018-04-10T23:47:43.889Z,22.67
2018-04-10T23:50:11.527Z,23.23
2018-04-10T23:52:39.117Z,22.07
2018-04-10T23:55:06.738Z,23.57
2018-04-10T23:57:34.382Z,23.17
